createdAt,value
2022-11-17T00:01:24.189Z,99797.77
2022-11-17T00:03:52.110Z,99809.18
2022-11-17T00:06:22.950Z,99818.99
2022-11-17T00:08:50.786Z,99818.99
2022-11-17T00:11:19.310Z,99822.69
2022-11-17T00:14:05.520Z,99849.46
2022-11-17T00:16:33.437Z,99855.16
2022-11-17T00:19:19.692Z,99843.77
2022-11-17T00:21:47.672Z,99849.10
2022-11-17T00:24:17.621Z,99851.95
2022-11-17T00:27:14.559Z,99854.96
2022-11-17T00:29:42.374Z,99831.48
2022-11-17T00:32:35.569Z,99825.07
2022-11-17T00:35:03.399Z,99818.66
2022-11-17T00:37:32.099Z,99823.96
2022-11-17T00:40:01.193Z,99825.17
2022-11-17T00:42:29.166Z,99843.16
2022-11-17T00:44:57.096Z,99818.37
2022-11-17T00:47:25.037Z,99807.48
2022-11-17T00:49:52.896Z,99799.41
2022-11-17T00:52:20.891Z,99800.32
2022-11-17T00:54:48.835Z,99792.70
2022-11-17T00:57:16.979Z,99781.33
2022-11-17T00:59:44.735Z,99780.51
2022-11-17T01:02:18.627Z,99791.88
2022-11-17T01:04:46.473Z,99797.25
2022-11-17T01:07:14.400Z,99776.81
2022-11-17T01:09:42.267Z,99789.04
2022-11-17T01:12:10.212Z,99772.89
2022-11-17T01:14:38.050Z,99769.69
2022-11-17T01:17:05.975Z,99766.13
2022-11-17T01:19:33.829Z,99779.13
2022-11-17T01:22:01.735Z,99763.27
2022-11-17T01:24:29.582Z,99753.53
2022-11-17T01:26:57.397Z,99765.86
2022-11-17T01:29:25.232Z,99757.39
2022-11-17T01:31:53.205Z,99761.91
2022-11-17T01:34:21.084Z,99765.56
2022-11-17T01:37:07.250Z,99765.14
2022-11-17T01:39:35.204Z,99770.08
2022-11-17T01:42:10.885Z,99776.23
2022-11-17T01:44:56.928Z,99763.18
2022-11-17T01:47:35.769Z,99762.00
2022-11-17T01:50:21.678Z,99749.77
2022-11-17T01:52:50.511Z,99750.98
2022-11-17T01:55:18.529Z,99733.06
2022-11-17T01:57:59.340Z,99713.97
2022-11-17T02:00:27.110Z,99703.31
2022-11-17T02:02:54.961Z,99696.80
2022-11-17T02:06:10.731Z,99696.80
2022-11-17T02:08:39.929Z,99698.44
2022-11-17T02:11:11.393Z,99692.36
2022-11-17T02:13:39.409Z,99681.08
2022-11-17T02:16:11.996Z,99676.14
2022-11-17T02:18:40.576Z,99675.39
2022-11-17T02:21:14.146Z,99657.44
2022-11-17T02:24:04.487Z,99646.20
2022-11-17T02:26:54.169Z,99637.33
2022-11-17T02:29:44.723Z,99620.79
2022-11-17T02:32:17.652Z,99589.56
2022-11-17T02:34:51.854Z,99588.38
2022-11-17T02:37:31.641Z,99568.87
2022-11-17T02:40:05.515Z,99572.16
2022-11-17T02:43:04.962Z,99551.87
2022-11-17T02:46:12.592Z,99553.07
2022-11-17T02:48:42.675Z,99565.04
2022-11-17T02:51:13.573Z,99571.91
2022-11-17T02:53:41.447Z,99569.45
2022-11-17T02:56:09.388Z,99571.91
2022-11-17T02:58:37.163Z,99577.53
2022-11-17T03:01:10.134Z,99593.52
2022-11-17T03:03:42.626Z,99622.09
2022-11-17T03:06:19.096Z,99633.96
2022-11-17T03:09:28.076Z,99661.23
2022-11-17T03:12:02.401Z,99682.35
2022-11-17T03:14:35.104Z,99678.30
2022-11-17T03:17:07.111Z,99682.35
2022-11-17T03:19:42.074Z,99681.83
2022-11-17T03:22:15.921Z,99680.98
2022-11-17T03:24:48.190Z,99683.37
2022-11-17T03:27:26.818Z,99678.89
2022-11-17T03:29:57.858Z,99691.94
2022-11-17T03:32:25.902Z,99693.02
2022-11-17T03:34:58.622Z,99696.97
2022-11-17T03:37:26.994Z,99683.83
2022-11-17T03:39:55.394Z,99669.96
2022-11-17T03:42:28.636Z,99657.67
2022-11-17T03:45:02.446Z,99650.57
2022-11-17T03:47:30.581Z,99642.79
2022-11-17T03:50:10.589Z,99639.00
2022-11-17T03:52:39.190Z,99623.20
2022-11-17T03:55:07.669Z,99637.82
2022-11-17T03:57:47.746Z,99632.13
2022-11-17T04:00:16.793Z,99614.67
2022-11-17T04:02:45.098Z,99612.65
2022-11-17T04:05:13.318Z,99616.77
2022-11-17T04:07:42.635Z,99606.20
2022-11-17T04:10:21.200Z,99622.55
2022-11-17T04:13:08.487Z,99627.52
2022-11-17T04:15:54.731Z,99650.37
2022-11-17T04:18:22.719Z,99654.07
2022-11-17T04:20:51.701Z,99638.09
2022-11-17T04:23:19.726Z,99650.93
2022-11-17T04:26:07.758Z,99634.32
2022-11-17T04:28:39.639Z,99623.77
2022-11-17T04:31:17.636Z,99613.59
2022-11-17T04:33:49.079Z,99609.87
2022-11-17T04:36:19.698Z,99601.73
2022-11-17T04:38:54.994Z,99599.80
2022-11-17T04:41:42.458Z,99582.70
2022-11-17T04:44:11.206Z,99580.96
2022-11-17T04:46:39.404Z,99583.45
2022-11-17T04:49:07.452Z,99601.73
2022-11-17T04:51:35.754Z,99599.60
2022-11-17T04:54:04.287Z,99592.73
2022-11-17T04:56:32.113Z,99612.38
2022-11-17T04:58:59.928Z,99614.48
2022-11-17T05:01:28.134Z,99597.31
2022-11-17T05:03:56.558Z,99589.14
2022-11-17T05:06:33.121Z,99630.20
2022-11-17T05:09:02.306Z,99618.89
2022-11-17T05:11:49.351Z,99626.21
2022-11-17T05:14:24.138Z,99624.58
2022-11-17T05:17:09.980Z,99616.44
2022-11-17T05:19:43.111Z,99626.15
2022-11-17T05:22:30.113Z,99623.66
2022-11-17T05:24:57.928Z,99633.87
2022-11-17T05:27:25.935Z,99630.53
2022-11-17T05:29:53.705Z,99624.52
2022-11-17T05:32:21.556Z,99631.48
2022-11-17T05:34:49.439Z,99628.18
2022-11-17T05:37:17.245Z,99631.48
2022-11-17T05:39:45.064Z,99622.48
2022-11-17T05:42:12.877Z,99623.77
2022-11-17T05:44:41.146Z,99621.02
2022-11-17T05:47:08.953Z,99614.12
2022-11-17T05:49:36.761Z,99616.50
2022-11-17T05:52:04.660Z,99612.94
2022-11-17T05:54:32.538Z,99621.84
2022-11-17T05:57:15.405Z,99618.89
2022-11-17T05:59:51.980Z,99618.89
2022-11-17T06:02:28.628Z,99609.44
2022-11-17T06:04:56.704Z,99613.10
2022-11-17T06:07:27.656Z,99609.05
2022-11-17T06:09:55.574Z,99616.87
2022-11-17T06:12:23.528Z,99613.20
2022-11-17T06:14:51.362Z,99611.57
2022-11-17T06:17:25.977Z,99603.10
2022-11-17T06:19:57.368Z,99617.32
2022-11-17T06:22:26.847Z,99629.62
2022-11-17T06:24:54.976Z,99637.82
2022-11-17T06:27:22.920Z,99650.84
2022-11-17T06:29:50.902Z,99654.98
2022-11-17T06:32:18.782Z,99652.96
2022-11-17T06:34:51.935Z,99658.32
2022-11-17T06:37:22.972Z,99664.83
2022-11-17T06:39:51.522Z,99660.41
2022-11-17T06:42:24.092Z,99653.52
2022-11-17T06:44:51.865Z,99653.13
2022-11-17T06:47:19.606Z,99636.32
2022-11-17T06:49:47.335Z,99639.66
2022-11-17T06:52:15.060Z,99628.77
2022-11-17T06:54:42.892Z,99631.25
2022-11-17T06:57:10.710Z,99630.07
2022-11-17T06:59:38.647Z,99622.55
2022-11-17T07:02:06.521Z,99625.59
2022-11-17T07:04:34.651Z,99638.48
2022-11-17T07:07:02.707Z,99629.13
2022-11-17T07:09:30.787Z,99625.82
2022-11-17T07:11:59.060Z,99634.65
2022-11-17T07:14:26.966Z,99636.48
2022-11-17T07:16:54.960Z,99614.25
2022-11-17T07:19:22.881Z,99630.89
2022-11-17T07:21:50.904Z,99632.55
2022-11-17T07:24:18.749Z,99639.06
2022-11-17T07:26:46.690Z,99638.18
2022-11-17T07:29:14.662Z,99633.38
2022-11-17T07:31:42.580Z,99641.91
2022-11-17T07:34:10.446Z,99635.96
2022-11-17T07:36:38.452Z,99634.55
2022-11-17T07:39:06.988Z,99627.85
2022-11-17T07:41:34.930Z,99624.88
2022-11-17T07:44:02.882Z,99623.08
2022-11-17T07:46:30.783Z,99626.64
2022-11-17T07:48:58.780Z,99629.06
2022-11-17T07:51:27.806Z,99609.44
2022-11-17T07:53:56.123Z,99622.09
2022-11-17T07:56:24.537Z,99620.10
2022-11-17T07:58:52.487Z,99624.68
2022-11-17T08:01:20.918Z,99627.75
2022-11-17T08:03:49.211Z,99624.22
2022-11-17T08:06:18.458Z,99619.97
2022-11-17T08:08:47.019Z,99626.21
2022-11-17T08:11:15.373Z,99632.07
2022-11-17T08:13:43.739Z,99623.53
2022-11-17T08:16:12.401Z,99624.05
2022-11-17T08:18:41.087Z,99614.90
2022-11-17T08:21:11.224Z,99611.01
2022-11-17T08:23:40.223Z,99608.23
2022-11-17T08:26:09.648Z,99606.66
2022-11-17T08:28:38.646Z,99608.85
2022-11-17T08:31:08.166Z,99614.90
2022-11-17T08:33:36.970Z,99613.37
2022-11-17T08:36:05.919Z,99622.39
2022-11-17T08:38:34.970Z,99616.99
2022-11-17T08:41:04.720Z,99625.53
2022-11-17T08:43:32.988Z,99630.04
2022-11-17T08:46:01.674Z,99634.62
2022-11-17T08:48:31.129Z,99635.17
2022-11-17T08:51:00.766Z,99640.99
2022-11-17T08:53:34.100Z,99628.86
2022-11-17T08:56:02.616Z,99632.30
2022-11-17T08:58:30.817Z,99637.27
2022-11-17T09:01:04.921Z,99649.56
2022-11-17T09:03:33.871Z,99663.13
2022-11-17T09:06:04.129Z,99666.43
2022-11-17T09:08:48.310Z,99664.47
2022-11-17T09:11:17.857Z,99672.31
2022-11-17T09:13:47.374Z,99669.99
2022-11-17T09:16:15.661Z,99674.96
2022-11-17T09:18:44.321Z,99666.89
2022-11-17T09:21:14.727Z,99683.76
2022-11-17T09:23:43.448Z,99685.49
2022-11-17T09:26:13.873Z,99694.98
2022-11-17T09:28:42.233Z,99696.64
2022-11-17T09:31:11.535Z,99690.10
2022-11-17T09:33:40.105Z,99708.19
2022-11-17T09:36:09.384Z,99704.91
2022-11-17T09:38:38.788Z,99700.37
2022-11-17T09:41:27.785Z,99699.98
2022-11-17T09:44:07.932Z,99702.01
2022-11-17T09:46:48.860Z,99704.45
2022-11-17T09:49:43.567Z,99711.42
2022-11-17T09:52:40.735Z,99708.97
2022-11-17T09:55:42.427Z,99720.41
2022-11-17T09:58:47.424Z,99724.47
2022-11-17T10:01:18.049Z,99738.36
2022-11-17T10:03:48.833Z,99732.15
2022-11-17T10:06:21.465Z,99728.03
2022-11-17T10:09:24.075Z,99732.25
2022-11-17T10:11:53.894Z,99746.21
2022-11-17T10:14:23.716Z,99740.06
2022-11-17T10:17:07.300Z,99742.58
2022-11-17T10:19:37.863Z,99740.98
2022-11-17T10:22:06.915Z,99743.04
2022-11-17T10:24:44.081Z,99741.41
2022-11-17T10:27:29.478Z,99734.47
2022-11-17T10:30:23.676Z,99734.90
2022-11-17T10:32:55.875Z,99747.16
2022-11-17T10:35:25.023Z,99745.10
2022-11-17T10:38:00.534Z,99736.83
2022-11-17T10:40:33.419Z,99746.66
2022-11-17T10:43:14.461Z,99729.50
2022-11-17T10:45:58.676Z,99724.63
2022-11-17T10:48:33.738Z,99732.05
2022-11-17T10:51:10.988Z,99726.33
2022-11-17T10:53:45.728Z,99718.91
2022-11-17T10:56:17.318Z,99715.61
2022-11-17T10:59:39.627Z,99709.07
2022-11-17T11:02:26.596Z,99708.22
2022-11-17T11:05:12.487Z,99713.94
2022-11-17T11:07:41.218Z,99720.94
2022-11-17T11:10:20.024Z,99723.78
2022-11-17T11:13:05.958Z,99717.21
2022-11-17T11:15:37.740Z,99718.84
2022-11-17T11:18:16.278Z,99706.13
2022-11-17T11:20:49.005Z,99712.27
2022-11-17T11:23:32.101Z,99713.91
2022-11-17T11:26:36.365Z,99707.73
2022-11-17T11:29:36.067Z,99712.66
2022-11-17T11:32:43.085Z,99709.79
2022-11-17T11:35:43.552Z,99717.90
2022-11-17T11:38:48.839Z,99716.20
2022-11-17T11:41:54.844Z,99694.91
2022-11-17T11:44:25.909Z,99689.09
2022-11-17T11:47:18.535Z,99686.28
2022-11-17T11:49:54.085Z,99673.98
2022-11-17T11:52:23.899Z,99673.98
2022-11-17T11:55:00.336Z,99667.48
2022-11-17T11:57:41.919Z,99667.09
2022-11-17T12:00:19.382Z,99676.14
2022-11-17T12:02:59.593Z,99665.05
2022-11-17T12:05:30.904Z,99669.54
2022-11-17T12:08:09.070Z,99662.93
2022-11-17T12:10:44.756Z,99662.09
2022-11-17T12:13:23.679Z,99660.88
2022-11-17T12:16:12.038Z,99671.86
2022-11-17T12:18:40.438Z,99652.08
2022-11-17T12:21:24.780Z,99658.59
2022-11-17T12:24:09.729Z,99646.55
2022-11-17T12:26:38.429Z,99656.79
2022-11-17T12:29:21.917Z,99644.39
2022-11-17T12:31:51.772Z,99647.83
2022-11-17T12:34:25.833Z,99658.09
2022-11-17T12:37:10.293Z,99650.70
2022-11-17T12:40:08.209Z,99660.71
2022-11-17T12:42:37.410Z,99654.59
2022-11-17T12:45:13.293Z,99659.56
2022-11-17T12:48:05.266Z,99666.63
2022-11-17T12:50:44.695Z,99668.27
2022-11-17T12:53:15.140Z,99671.99
2022-11-17T12:55:49.457Z,99667.87
2022-11-17T12:58:26.464Z,99673.66
2022-11-17T13:00:57.657Z,99675.26
2022-11-17T13:03:51.035Z,99679.34
2022-11-17T13:06:34.960Z,99674.02
2022-11-17T13:09:09.357Z,99664.93
2022-11-17T13:11:38.005Z,99673.59
2022-11-17T13:14:13.486Z,99664.96
2022-11-17T13:16:51.227Z,99660.45
2022-11-17T13:19:30.840Z,99671.99
2022-11-17T13:22:15.136Z,99669.96
2022-11-17T13:24:50.813Z,99664.60
2022-11-17T13:27:22.505Z,99659.20
2022-11-17T13:29:51.368Z,99655.48
2022-11-17T13:32:25.132Z,99651.75
2022-11-17T13:34:55.159Z,99665.74
2022-11-17T13:37:28.383Z,99667.80
2022-11-17T13:40:00.606Z,99664.53
2022-11-17T13:42:36.412Z,99676.47
2022-11-17T13:45:05.342Z,99661.23
2022-11-17T13:47:39.702Z,99660.45
2022-11-17T13:50:36.062Z,99657.96
2022-11-17T13:53:13.482Z,99659.56
2022-11-17T13:55:47.997Z,99637.27
2022-11-17T13:58:29.243Z,99646.78
2022-11-17T14:01:01.752Z,99656.23
2022-11-17T14:03:33.421Z,99646.32
2022-11-17T14:06:01.684Z,99645.11
2022-11-17T14:08:42.197Z,99652.96
2022-11-17T14:11:13.608Z,99640.60
2022-11-17T14:13:47.032Z,99642.30
2022-11-17T14:16:26.561Z,99641.52
2022-11-17T14:19:06.255Z,99653.45
2022-11-17T14:21:34.307Z,99651.00
2022-11-17T14:24:05.244Z,99661.33
2022-11-17T14:26:33.277Z,99658.87
2022-11-17T14:29:03.532Z,99650.64
2022-11-17T14:31:31.940Z,99649.85
2022-11-17T14:33:59.885Z,99648.19
2022-11-17T14:36:27.705Z,99646.55
2022-11-17T14:38:55.599Z,99653.55
2022-11-17T14:41:23.807Z,99651.91
2022-11-17T14:43:52.515Z,99653.94
2022-11-17T14:46:27.203Z,99651.49
2022-11-17T14:48:55.183Z,99667.90
2022-11-17T14:51:23.406Z,99678.17
2022-11-17T14:53:51.466Z,99667.48
2022-11-17T14:56:21.190Z,99666.20
2022-11-17T14:58:50.102Z,99668.66
2022-11-17T15:01:19.067Z,99664.47
2022-11-17T15:03:47.343Z,99664.44
2022-11-17T15:06:19.970Z,99674.70
2022-11-17T15:08:49.212Z,99674.64
2022-11-17T15:11:18.673Z,99675.03
2022-11-17T15:13:46.659Z,99676.24
2022-11-17T15:16:14.833Z,99676.21
2022-11-17T15:18:45.955Z,99682.32
2022-11-17T15:21:14.191Z,99685.59
2022-11-17T15:23:42.347Z,99679.80
2022-11-17T15:26:15.876Z,99656.82
2022-11-17T15:28:43.791Z,99646.12
2022-11-17T15:31:15.513Z,99646.09
2022-11-17T15:33:43.926Z,99647.73
2022-11-17T15:36:13.705Z,99641.98
2022-11-17T15:38:42.010Z,99652.57
2022-11-17T15:41:11.627Z,99647.23
2022-11-17T15:43:40.910Z,99646.78
2022-11-17T15:46:13.688Z,99651.62
2022-11-17T15:49:03.549Z,99654.89
2022-11-17T15:51:31.964Z,99636.80
2022-11-17T15:54:01.029Z,99642.53
2022-11-17T15:56:30.872Z,99623.66
2022-11-17T15:59:02.783Z,99633.44
2022-11-17T16:01:35.337Z,99625.27
2022-11-17T16:04:05.356Z,99626.41
2022-11-17T16:06:35.107Z,99632.59
2022-11-17T16:09:07.834Z,99622.29
2022-11-17T16:11:36.649Z,99628.80
2022-11-17T16:14:05.058Z,99623.83
2022-11-17T16:16:34.938Z,99630.70
2022-11-17T16:19:03.649Z,99628.18
2022-11-17T16:21:31.992Z,99630.98
2022-11-17T16:24:01.925Z,99626.34
2022-11-17T16:26:30.774Z,99617.71
2022-11-17T16:29:03.378Z,99612.29
2022-11-17T16:31:33.588Z,99608.10
2022-11-17T16:34:03.185Z,99605.55
2022-11-17T16:36:36.225Z,99601.43
2022-11-17T16:39:06.458Z,99600.09
2022-11-17T16:41:36.504Z,99604.96
2022-11-17T16:44:07.824Z,99597.84
2022-11-17T16:46:36.320Z,99602.25
2022-11-17T16:49:06.195Z,99598.52
2022-11-17T16:51:34.552Z,99592.30
2022-11-17T16:54:04.014Z,99607.25
2022-11-17T16:56:32.036Z,99601.43
2022-11-17T16:59:00.316Z,99605.75
2022-11-17T17:01:31.647Z,99606.92
2022-11-17T17:04:01.189Z,99617.42
2022-11-17T17:06:29.172Z,99603.13
2022-11-17T17:08:58.306Z,99607.52
2022-11-17T17:11:26.589Z,99611.11
2022-11-17T17:13:54.450Z,99597.90
2022-11-17T17:16:22.704Z,99604.34
2022-11-17T17:18:54.878Z,99605.88
2022-11-17T17:21:22.838Z,99612.35
2022-11-17T17:23:50.669Z,99614.34
2022-11-17T17:26:20.079Z,99620.43
2022-11-17T17:28:49.525Z,99625.73
2022-11-17T17:31:21.654Z,99622.72
2022-11-17T17:33:51.270Z,99632.95
2022-11-17T17:36:23.723Z,99629.71
2022-11-17T17:38:55.860Z,99637.01
2022-11-17T17:41:25.961Z,99644.30
2022-11-17T17:44:04.326Z,99642.59
2022-11-17T17:46:33.115Z,99645.84
2022-11-17T17:49:01.308Z,99641.71
2022-11-17T17:51:30.026Z,99638.87
2022-11-17T17:53:59.735Z,99636.32
2022-11-17T17:56:27.958Z,99641.22
2022-11-17T17:58:56.612Z,99639.23
2022-11-17T18:01:26.230Z,99640.86
2022-11-17T18:03:55.541Z,99635.92
2022-11-17T18:06:23.729Z,99626.12
2022-11-17T18:08:51.921Z,99625.27
2022-11-17T18:11:20.983Z,99622.81
2022-11-17T18:13:50.402Z,99620.33
2022-11-17T18:16:23.434Z,99627.23
2022-11-17T18:18:51.594Z,99626.02
2022-11-17T18:21:20.353Z,99627.66
2022-11-17T18:23:48.912Z,99634.39
2022-11-17T18:26:19.578Z,99646.68
2022-11-17T18:28:57.586Z,99664.24
2022-11-17T18:31:30.449Z,99669.60
2022-11-17T18:34:00.365Z,99661.40
2022-11-17T18:36:28.837Z,99655.31
2022-11-17T18:38:58.015Z,99657.77
2022-11-17T18:41:26.523Z,99672.05
2022-11-17T18:43:55.800Z,99672.05
2022-11-17T18:46:24.992Z,99666.04
2022-11-17T18:48:54.225Z,99657.05
2022-11-17T18:51:23.852Z,99659.99
2022-11-17T18:53:55.817Z,99656.75
2022-11-17T18:56:25.671Z,99648.22
2022-11-17T18:58:54.294Z,99676.44
2022-11-17T19:01:23.962Z,99696.05
2022-11-17T19:03:53.866Z,99696.55
2022-11-17T19:06:27.439Z,99697.82
2022-11-17T19:08:56.083Z,99688.86
2022-11-17T19:11:25.201Z,99705.60
2022-11-17T19:13:53.810Z,99701.52
2022-11-17T19:16:26.804Z,99712.50
2022-11-17T19:18:56.859Z,99700.70
2022-11-17T19:21:29.701Z,99708.87
2022-11-17T19:24:02.481Z,99717.90
2022-11-17T19:26:38.742Z,99710.15
2022-11-17T19:29:15.568Z,99723.62
2022-11-17T19:31:44.491Z,99740.75
2022-11-17T19:34:17.842Z,99738.66
2022-11-17T19:36:46.683Z,99755.01
2022-11-17T19:39:20.351Z,99758.66
2022-11-17T19:41:54.357Z,99762.76
2022-11-17T19:44:28.081Z,99762.76
2022-11-17T19:46:59.888Z,99770.86
2022-11-17T19:49:28.221Z,99798.62
2022-11-17T19:51:56.659Z,99801.27
2022-11-17T19:54:29.557Z,99807.74
2022-11-17T19:56:58.077Z,99788.75
2022-11-17T19:59:26.687Z,99813.47
2022-11-17T20:02:00.289Z,99814.16
2022-11-17T20:04:28.725Z,99811.24
2022-11-17T20:06:57.371Z,99814.77
2022-11-17T20:09:31.469Z,99809.70
2022-11-17T20:12:02.519Z,99822.26
2022-11-17T20:14:31.994Z,99825.34
2022-11-17T20:17:03.268Z,99827.66
2022-11-17T20:19:36.232Z,99834.03
2022-11-17T20:22:04.697Z,99830.70
2022-11-17T20:24:35.922Z,99831.74
2022-11-17T20:27:04.321Z,99836.98
2022-11-17T20:29:32.945Z,99844.62
2022-11-17T20:32:13.059Z,99844.46
2022-11-17T20:34:41.357Z,99845.57
2022-11-17T20:37:16.006Z,99825.07
2022-11-17T20:39:49.291Z,99820.01
2022-11-17T20:42:22.872Z,99807.68
2022-11-17T20:44:51.671Z,99776.52
2022-11-17T20:47:32.209Z,99798.06
2022-11-17T20:50:02.742Z,99801.34
2022-11-17T20:52:33.584Z,99798.88
2022-11-17T20:55:02.051Z,99787.08
2022-11-17T20:57:32.870Z,99796.01
2022-11-17T21:00:01.324Z,99795.94
2022-11-17T21:02:35.643Z,99791.07
2022-11-17T21:05:06.650Z,99795.13
2022-11-17T21:07:42.962Z,99798.59
2022-11-17T21:10:15.903Z,99793.36
2022-11-17T21:12:44.346Z,99800.26
2022-11-17T21:15:17.819Z,99796.59
2022-11-17T21:18:04.326Z,99793.75
2022-11-17T21:20:38.740Z,99786.36
2022-11-17T21:23:07.122Z,99804.31
2022-11-17T21:25:39.814Z,99796.14
2022-11-17T21:28:10.938Z,99800.26
2022-11-17T21:30:42.305Z,99799.44
2022-11-17T21:33:15.736Z,99801.44
2022-11-17T21:35:50.001Z,99802.91
2022-11-17T21:38:18.511Z,99795.09
2022-11-17T21:40:47.049Z,99804.77
2022-11-17T21:43:15.168Z,99814.05
2022-11-17T21:45:43.751Z,99807.98
2022-11-17T21:48:16.541Z,99825.01
2022-11-17T21:50:47.092Z,99832.98
2022-11-17T21:53:19.967Z,99826.77
2022-11-17T21:55:53.059Z,99834.00
2022-11-17T21:58:26.074Z,99811.37
2022-11-17T22:00:54.588Z,99815.43
2022-11-17T22:03:25.757Z,99806.05
2022-11-17T22:06:06.419Z,99806.89
2022-11-17T22:08:37.736Z,99808.53
2022-11-17T22:11:10.541Z,99794.63
2022-11-17T22:13:44.521Z,99786.55
2022-11-17T22:16:16.008Z,99780.87
2022-11-17T22:18:50.398Z,99767.82
2022-11-17T22:21:19.219Z,99771.48
2022-11-17T22:23:48.237Z,99773.05
2022-11-17T22:26:16.884Z,99768.64
2022-11-17T22:28:45.113Z,99763.87
2022-11-17T22:31:13.826Z,99769.95
2022-11-17T22:33:42.039Z,99761.74
2022-11-17T22:36:12.980Z,99758.99
2022-11-17T22:38:40.911Z,99759.45
2022-11-17T22:41:13.246Z,99765.24
2022-11-17T22:43:41.459Z,99764.48
2022-11-17T22:46:11.537Z,99765.70
2022-11-17T22:48:40.686Z,99755.95
2022-11-17T22:51:13.718Z,99735.65
2022-11-17T22:53:46.208Z,99762.95
2022-11-17T22:56:22.149Z,99758.80
2022-11-17T22:58:54.282Z,99769.75
2022-11-17T23:01:26.144Z,99771.02
2022-11-17T23:03:58.543Z,99773.45
2022-11-17T23:06:31.233Z,99774.27
2022-11-17T23:09:03.861Z,99779.89
2022-11-17T23:11:39.063Z,99782.34
2022-11-17T23:14:08.394Z,99772.95
2022-11-17T23:16:37.304Z,99769.75
2022-11-17T23:19:14.309Z,99761.22
2022-11-17T23:21:42.998Z,99756.67
2022-11-17T23:24:17.219Z,99764.06
2022-11-17T23:26:45.266Z,99752.29
2022-11-17T23:29:18.665Z,99766.45
2022-11-17T23:31:50.898Z,99768.09
2022-11-17T23:34:19.237Z,99777.01
2022-11-17T23:36:47.606Z,99771.74
2022-11-17T23:39:15.747Z,99766.91
2022-11-17T23:41:43.969Z,99774.72
2022-11-17T23:44:12.108Z,99771.87
2022-11-17T23:46:44.595Z,99770.21
2022-11-17T23:49:17.305Z,99763.21
2022-11-17T23:51:45.533Z,99763.67
2022-11-17T23:54:14.253Z,99764.48
2022-11-17T23:56:42.610Z,99754.77
2022-11-17T23:59:11.085Z,99757.16
